Time;durP1;ratioP1;P1;durP2;ratioP2;P2;SDS_P1;SDS_P2;PMS_P1;PMS_P2;Temp;Humidity;BMP_temperature;BMP_pressure;BME280_temperature;BME280_humidity;BME280_pressure;Samples;Min_cycle;Max_cycle;Signal;HPM_P1;HPM_P2
2021/05/14 08:11:16;;;;;;;;;;;;;;;13.53;61.99;98805.34;6244424;22;20291;-88
2021/05/14 08:13:41;;;;;;;;;;;;;;;13.55;62.27;98808.72;6217530;23;19916;-87
2021/05/14 08:16:07;;;;;;;;;;;;;;;13.55;62.05;98806.06;6243854;23;19919;-88
2021/05/14 08:18:32;;;;;;;;;;;;;;;13.55;61.84;98805.22;6243512;23;19919;-88
2021/05/14 08:20:58;;;;;;;;;;;;;;;13.56;62.09;98805.13;6217109;23;19994;-87
2021/05/14 08:23:23;;;;;;;;;;;;;;;13.56;61.73;98813.09;6217568;23;20264;-89
2021/05/14 08:25:49;;;;;;;;;;;;;;;13.58;61.78;98805.84;6243716;23;19962;-88
2021/05/14 08:28:15;;;;;;;;;;;;;;;13.61;62.08;98813.63;6242988;23;19916;-88
2021/05/14 08:30:42;;;;;;;;;;;;;;;13.59;62.04;98810.22;6243681;23;20201;-88
2021/05/14 08:33:08;;;;;;;;;;;;;;;13.61;61.94;98808.31;6217576;23;19961;-88
2021/05/14 08:35:37;;;;;;;;;;;;;;;13.61;61.79;98807.47;6217800;23;19990;-89
2021/05/14 08:38:03;;;;;;;;;;;;;;;13.62;61.80;98812.69;6220388;23;20448;-89
2021/05/14 08:40:29;;;;;;;;;;;;;;;13.62;61.57;98812.69;6248514;23;19943;-87
2021/05/14 08:42:55;;;;;;;;;;;;;;;13.63;61.60;98817.03;6247566;23;20380;-88
2021/05/14 08:45:23;;;;;;;;;;;;;;;13.67;61.55;98808.81;6247841;23;19930;-86
2021/05/14 08:47:49;;;;;;;;;;;;;;;13.67;61.42;98809.66;6221236;23;19912;-87
2021/05/14 08:50:15;;;;;;;;;;;;;;;13.66;61.40;98815.97;6220408;23;19915;-87
2021/05/14 08:52:42;;;;;;;;;;;;;;;13.67;61.46;98806.16;6221671;23;20324;-87
2021/05/14 08:55:08;;;;;;;;;;;;;;;13.67;61.41;98812.31;6220867;23;20177;-87
2021/05/14 08:57:34;;;;;;;;;;;;;;;13.70;61.29;98819.25;6221293;23;20315;-87
2021/05/14 08:59:59;;;;;;;;;;;;;;;13.70;61.05;98812.09;6247520;23;19911;-87
2021/05/14 09:02:25;;;;;;;;;;;;;;;13.70;60.81;98814.75;6246595;23;19915;-84
2021/05/14 09:04:50;;;;;;;;;;;;;;;13.72;60.87;98814.66;6269467;22;20326;-84
2021/05/14 09:07:18;;;;;;;;;;;;;;;13.72;60.72;98810.22;6276782;22;19915;-84
2021/05/14 09:10:02;;;;;;;;;;;;;;;13.70;60.81;98806.78;6276799;22;20356;-84
2021/05/14 09:12:34;;;;;;;;;;;;;;;13.73;60.78;98800.41;6276008;22;19915;-84
2021/05/14 09:15:00;;;;;;;;;;;;;;;13.73;60.24;98801.25;6276812;22;19946;-83
2021/05/14 09:17:27;;;;;;;;;;;;;;;13.75;60.44;98798.47;6276724;22;19937;-84
2021/05/14 09:19:52;;;;;;;;;;;;;;;13.77;60.24;98801.91;6276158;22;19915;-84
2021/05/14 09:22:19;;;;;;;;;;;;;;;13.76;60.26;98794.84;6275500;22;19991;-83
2021/05/14 09:24:47;;;;;;;;;;;;;;;13.75;60.56;98798.47;6276280;22;19984;-83
2021/05/14 09:27:26;;;;;;;;;;;;;;;13.73;60.50;98800.41;6276973;22;20276;-86
2021/05/14 09:29:52;;;;;;;;;;;;;;;13.73;60.69;98808.38;6275618;22;19972;-82
2021/05/14 09:32:18;;;;;;;;;;;;;;;13.74;60.71;98802.09;6275742;22;20470;-83
2021/05/14 09:34:46;;;;;;;;;;;;;;;13.74;60.62;98807.44;6276123;22;19945;-82
2021/05/14 09:37:16;;;;;;;;;;;;;;;13.73;60.83;98806.56;6275914;22;19938;-86
2021/05/14 09:39:41;;;;;;;;;;;;;;;13.73;60.89;98801.25;6275979;22;20176;-84
2021/05/14 09:42:08;;;;;;;;;;;;;;;13.75;61.08;98801.13;6276746;22;19915;-85
2021/05/14 09:44:33;;;;;;;;;;;;;;;13.75;61.04;98798.47;6277526;22;19927;-83
2021/05/14 09:46:58;;;;;;;;;;;;;;;13.76;61.11;98800.19;6276766;22;19919;-85
2021/05/14 09:49:27;;;;;;;;;;;;;;;13.78;60.79;98804.41;6248354;22;19922;-84
2021/05/14 09:51:54;;;;;;;;;;;;;;;13.79;60.40;98795.47;6276381;22;19919;-84
2021/05/14 09:54:27;;;;;;;;;;;;;;;13.78;60.42;98798.25;6277075;22;19922;-84
2021/05/14 10:00:13;;;;;;;;;;;;;;;13.78;60.54;98792.94;6282523;22;19986;-83
2021/05/14 10:02:39;;;;;;;;;;;;;;;13.78;60.76;98793.75;6276321;22;19919;-82
2021/05/14 10:05:06;;;;;;;;;;;;;;;13.78;61.01;98795.59;6274657;22;20290;-81
2021/05/14 10:07:32;;;;;;;;;;;;;;;13.75;60.76;98796.69;6249064;22;19915;-82
2021/05/14 10:10:00;;;;;;;;;;;;;;;13.78;60.93;98798.25;6275716;22;19911;-79
2021/05/14 10:12:26;;;;;;;;;;;;;;;13.77;61.01;98791.25;6275027;22;19935;-85
2021/05/14 10:14:52;;;;;;;;;;;;;;;13.77;61.36;98780.59;6248642;22;19922;-85
2021/05/14 10:17:18;;;;;;;;;;;;;;;13.79;61.11;98779.50;6249166;22;20251;-85
2021/05/14 10:19:45;;;;;;;;;;;;;;;13.79;60.91;98770.69;6249675;22;19994;-86
2021/05/14 10:22:11;;;;;;;;;;;;;;;13.80;61.08;98775.03;6276088;22;19980;-82
2021/05/14 10:24:38;;;;;;;;;;;;;;;13.79;61.04;98774.19;6275446;22;19915;-84
2021/05/14 10:27:14;;;;;;;;;;;;;;;13.78;60.96;98766.31;6250334;22;20185;-84
2021/05/14 10:29:41;;;;;;;;;;;;;;;13.78;61.02;98764.47;6276242;22;19912;-87
2021/05/14 10:32:07;;;;;;;;;;;;;;;13.78;61.07;98769.81;6275556;22;19939;-85
2021/05/14 10:34:32;;;;;;;;;;;;;;;13.79;61.46;98768.00;6275894;22;19941;-85
2021/05/14 10:36:58;;;;;;;;;;;;;;;13.81;61.27;98766.91;6275395;22;19915;-86
2021/05/14 10:39:33;;;;;;;;;;;;;;;13.80;61.23;98764.38;6250807;22;20346;-85
2021/05/14 10:42:01;;;;;;;;;;;;;;;13.79;61.27;98760.88;6276311;22;19911;-86
